<?xml version="1.0" encoding="UTF-8" standalone="no" ?>
<gpx xmlns="http://www.topografix.com/GPX/1/1" xmlns:xsi="http://www.w3.org/2001/XMLSchema-instance" xsi:schemaLocation="http://www.topografix.com/GPX/1/1 http://www.topografix.com/GPX/1/1/gpx.xsd" version="1.1" creator="VisuGPX - https://www.visugpx.com">
  <metadata>
    <name>8124693-Magny en Vexin</name>
  </metadata>
  <trk>
    <name><![CDATA[8124693-Magny en Vexin]]></name>
    <extensions>
      <line xmlns="http://www.topografix.com/GPX/gpx_style/0/2">
        <color>0000FF</color>
        <width>4</width>
      </line>
    </extensions>
    <trkseg>
      <trkpt lat="49.15747" lon="1.7885">
        <ele>69.6</ele>
        <time>2022-11-23T15:46:39Z</time>
      </trkpt>
      <trkpt lat="49.1574" lon="1.78834">
        <ele>69.4</ele>
      </trkpt>
      <trkpt lat="49.1573" lon="1.78818">
        <ele>69.6</ele>
        <time>2022-11-23T15:46:58Z</time>
      </trkpt>
      <trkpt lat="49.1572" lon="1.7883">
        <ele>70.2</ele>
        <time>2022-11-23T15:47:06Z</time>
      </trkpt>
      <trkpt lat="49.15705" lon="1.78803">
        <ele>70.6</ele>
        <time>2022-11-23T15:47:26Z</time>
      </trkpt>
      <trkpt lat="49.15756" lon="1.78594">
        <ele>70.1</ele>
        <time>2022-11-23T15:49:22Z</time>
      </trkpt>
      <trkpt lat="49.15714" lon="1.78352">
        <ele>71.5</ele>
        <time>2022-11-23T15:51:36Z</time>
      </trkpt>
      <trkpt lat="49.15754" lon="1.78338">
        <ele>73</ele>
        <time>2022-11-23T15:52:10Z</time>
      </trkpt>
      <trkpt lat="49.15722" lon="1.78251">
        <ele>77</ele>
      </trkpt>
      <trkpt lat="49.15713" lon="1.78252">
        <ele>76.9</ele>
        <time>2022-11-23T15:52:59Z</time>
      </trkpt>
      <trkpt lat="49.1561" lon="1.78195">
        <ele>74.8</ele>
        <time>2022-11-23T15:54:30Z</time>
      </trkpt>
      <trkpt lat="49.1557" lon="1.78128">
        <ele>73</ele>
        <time>2022-11-23T15:55:22Z</time>
      </trkpt>
      <trkpt lat="49.15543" lon="1.78083">
        <ele>74.6</ele>
      </trkpt>
      <trkpt lat="49.1552" lon="1.78038">
        <ele>76.7</ele>
      </trkpt>
      <trkpt lat="49.15516" lon="1.7802">
        <ele>77.4</ele>
        <time>2022-11-23T15:56:34Z</time>
      </trkpt>
      <trkpt lat="49.15489" lon="1.78088">
        <ele>69</ele>
        <time>2022-11-23T15:57:13Z</time>
      </trkpt>
      <trkpt lat="49.15462" lon="1.78119">
        <ele>67.3</ele>
        <time>2022-11-23T15:57:35Z</time>
      </trkpt>
      <trkpt lat="49.15456" lon="1.78117">
        <ele>66.9</ele>
        <time>2022-11-23T15:57:46Z</time>
      </trkpt>
      <trkpt lat="49.15426" lon="1.78151">
        <ele>67</ele>
        <time>2022-11-23T15:58:14Z</time>
      </trkpt>
      <trkpt lat="49.15375" lon="1.78064">
        <ele>66</ele>
        <time>2022-11-23T15:59:15Z</time>
      </trkpt>
      <trkpt lat="49.15375" lon="1.78047">
        <ele>65.7</ele>
        <time>2022-11-23T15:59:24Z</time>
      </trkpt>
      <trkpt lat="49.15374" lon="1.78012">
        <ele>67</ele>
        <time>2022-11-23T15:59:43Z</time>
      </trkpt>
      <trkpt lat="49.15369" lon="1.77965">
        <ele>68</ele>
        <time>2022-11-23T16:00:08Z</time>
      </trkpt>
      <trkpt lat="49.15363" lon="1.77946">
        <ele>68</ele>
        <time>2022-11-23T16:00:19Z</time>
      </trkpt>
      <trkpt lat="49.15333" lon="1.77875">
        <ele>67</ele>
        <time>2022-11-23T16:01:03Z</time>
      </trkpt>
      <trkpt lat="49.15321" lon="1.77859">
        <ele>67</ele>
        <time>2022-11-23T16:01:16Z</time>
      </trkpt>
      <trkpt lat="49.15311" lon="1.77816">
        <ele>65.6</ele>
        <time>2022-11-23T16:01:41Z</time>
      </trkpt>
      <trkpt lat="49.15306" lon="1.77789">
        <ele>68.6</ele>
        <time>2022-11-23T16:01:51Z</time>
      </trkpt>
      <trkpt lat="49.15301" lon="1.77784">
        <ele>68</ele>
        <time>2022-11-23T16:02:00Z</time>
      </trkpt>
      <trkpt lat="49.15283" lon="1.77749">
        <ele>67</ele>
        <time>2022-11-23T16:02:23Z</time>
      </trkpt>
      <trkpt lat="49.15268" lon="1.77718">
        <ele>66</ele>
        <time>2022-11-23T16:02:43Z</time>
      </trkpt>
      <trkpt lat="49.1523" lon="1.77609">
        <ele>64</ele>
        <time>2022-11-23T16:03:48Z</time>
      </trkpt>
      <trkpt lat="49.1523" lon="1.77597">
        <ele>63.8</ele>
      </trkpt>
      <trkpt lat="49.15212" lon="1.77527">
        <ele>65</ele>
        <time>2022-11-23T16:04:33Z</time>
      </trkpt>
      <trkpt lat="49.15195" lon="1.77462">
        <ele>63.4</ele>
        <time>2022-11-23T16:05:10Z</time>
      </trkpt>
      <trkpt lat="49.15191" lon="1.77413">
        <ele>68</ele>
        <time>2022-11-23T16:05:37Z</time>
      </trkpt>
      <trkpt lat="49.15189" lon="1.77396">
        <ele>67.3</ele>
      </trkpt>
      <trkpt lat="49.15182" lon="1.7738">
        <ele>69</ele>
        <time>2022-11-23T16:05:55Z</time>
      </trkpt>
      <trkpt lat="49.15148" lon="1.77315">
        <ele>68</ele>
        <time>2022-11-23T16:06:39Z</time>
      </trkpt>
      <trkpt lat="49.15135" lon="1.77271">
        <ele>64.8</ele>
        <time>2022-11-23T16:06:59Z</time>
      </trkpt>
      <trkpt lat="49.15109" lon="1.77135">
        <ele>63.1</ele>
        <time>2022-11-23T16:08:19Z</time>
      </trkpt>
      <trkpt lat="49.15077" lon="1.77002">
        <ele>65</ele>
        <time>2022-11-23T16:09:32Z</time>
      </trkpt>
      <trkpt lat="49.15037" lon="1.76882">
        <ele>63.8</ele>
        <time>2022-11-23T16:10:42Z</time>
      </trkpt>
      <trkpt lat="49.15016" lon="1.76824">
        <ele>64.6</ele>
        <time>2022-11-23T16:11:18Z</time>
      </trkpt>
      <trkpt lat="49.14999" lon="1.768">
        <ele>63.4</ele>
        <time>2022-11-23T16:11:36Z</time>
      </trkpt>
      <trkpt lat="49.14977" lon="1.76765">
        <ele>63</ele>
        <time>2022-11-23T16:12:01Z</time>
      </trkpt>
      <trkpt lat="49.14917" lon="1.7667">
        <ele>62</ele>
        <time>2022-11-23T16:13:11Z</time>
      </trkpt>
      <trkpt lat="49.14858" lon="1.7657">
        <ele>62.6</ele>
        <time>2022-11-23T16:14:12Z</time>
      </trkpt>
      <trkpt lat="49.14826" lon="1.76489">
        <ele>62.9</ele>
        <time>2022-11-23T16:15:18Z</time>
      </trkpt>
      <trkpt lat="49.14811" lon="1.76412">
        <ele>64</ele>
        <time>2022-11-23T16:15:52Z</time>
      </trkpt>
      <trkpt lat="49.14785" lon="1.76297">
        <ele>63.6</ele>
        <time>2022-11-23T16:16:55Z</time>
      </trkpt>
      <trkpt lat="49.14767" lon="1.76214">
        <ele>63.8</ele>
      </trkpt>
      <trkpt lat="49.14735" lon="1.76109">
        <ele>63.3</ele>
        <time>2022-11-23T16:18:40Z</time>
      </trkpt>
      <trkpt lat="49.14686" lon="1.75951">
        <ele>63</ele>
        <time>2022-11-23T16:20:14Z</time>
      </trkpt>
      <trkpt lat="49.14677" lon="1.75921">
        <ele>63.7</ele>
      </trkpt>
      <trkpt lat="49.14661" lon="1.75831">
        <ele>64</ele>
        <time>2022-11-23T16:21:20Z</time>
      </trkpt>
      <trkpt lat="49.14638" lon="1.75708">
        <ele>66.4</ele>
        <time>2022-11-23T16:22:26Z</time>
      </trkpt>
      <trkpt lat="49.146" lon="1.75593">
        <ele>62.1</ele>
        <time>2022-11-23T16:23:38Z</time>
      </trkpt>
      <trkpt lat="49.14603" lon="1.75581">
        <ele>62.4</ele>
      </trkpt>
      <trkpt lat="49.14591" lon="1.75535">
        <ele>61</ele>
        <time>2022-11-23T16:24:06Z</time>
      </trkpt>
      <trkpt lat="49.1458" lon="1.75502">
        <ele>61.6</ele>
      </trkpt>
      <trkpt lat="49.14539" lon="1.75356">
        <ele>60</ele>
      </trkpt>
      <trkpt lat="49.14534" lon="1.75329">
        <ele>61</ele>
        <time>2022-11-23T16:26:03Z</time>
      </trkpt>
      <trkpt lat="49.14526" lon="1.75261">
        <ele>62</ele>
        <time>2022-11-23T16:26:39Z</time>
      </trkpt>
      <trkpt lat="49.14539" lon="1.75168">
        <ele>60.1</ele>
      </trkpt>
      <trkpt lat="49.14557" lon="1.75079">
        <ele>61</ele>
        <time>2022-11-23T16:28:18Z</time>
      </trkpt>
      <trkpt lat="49.14578" lon="1.74964">
        <ele>59.1</ele>
        <time>2022-11-23T16:29:21Z</time>
      </trkpt>
      <trkpt lat="49.14586" lon="1.7493">
        <ele>58.8</ele>
        <time>2022-11-23T16:29:40Z</time>
      </trkpt>
      <trkpt lat="49.14593" lon="1.74909">
        <ele>59.4</ele>
        <time>2022-11-23T16:29:52Z</time>
      </trkpt>
      <trkpt lat="49.14603" lon="1.74884">
        <ele>60.7</ele>
        <time>2022-11-23T16:30:08Z</time>
      </trkpt>
      <trkpt lat="49.14643" lon="1.74776">
        <ele>62.4</ele>
        <time>2022-11-23T16:31:11Z</time>
      </trkpt>
      <trkpt lat="49.14673" lon="1.74628">
        <ele>67</ele>
        <time>2022-11-23T16:32:33Z</time>
      </trkpt>
      <trkpt lat="49.14712" lon="1.74384">
        <ele>71</ele>
        <time>2022-11-23T16:34:45Z</time>
      </trkpt>
      <trkpt lat="49.14748" lon="1.74203">
        <ele>65.5</ele>
      </trkpt>
      <trkpt lat="49.14788" lon="1.74033">
        <ele>68.3</ele>
      </trkpt>
      <trkpt lat="49.14815" lon="1.73925">
        <ele>69.7</ele>
      </trkpt>
      <trkpt lat="49.14845" lon="1.73837">
        <ele>74</ele>
        <time>2022-11-23T16:39:51Z</time>
      </trkpt>
      <trkpt lat="49.14875" lon="1.73788">
        <ele>70.5</ele>
        <time>2022-11-23T16:40:21Z</time>
      </trkpt>
      <trkpt lat="49.14918" lon="1.73793">
        <ele>77</ele>
        <time>2022-11-23T16:40:57Z</time>
      </trkpt>
      <trkpt lat="49.15013" lon="1.73806">
        <ele>73</ele>
        <time>2022-11-23T16:42:12Z</time>
      </trkpt>
      <trkpt lat="49.15046" lon="1.7381">
        <ele>74.3</ele>
        <time>2022-11-23T16:42:48Z</time>
      </trkpt>
      <trkpt lat="49.15083" lon="1.73795">
        <ele>80</ele>
        <time>2022-11-23T16:43:10Z</time>
      </trkpt>
      <trkpt lat="49.15126" lon="1.73796">
        <ele>81</ele>
        <time>2022-11-23T16:43:45Z</time>
      </trkpt>
      <trkpt lat="49.15178" lon="1.73808">
        <ele>83</ele>
        <time>2022-11-23T16:44:27Z</time>
      </trkpt>
      <trkpt lat="49.15206" lon="1.738">
        <ele>82</ele>
        <time>2022-11-23T16:44:49Z</time>
      </trkpt>
      <trkpt lat="49.15231" lon="1.73804">
        <ele>83</ele>
        <time>2022-11-23T16:45:10Z</time>
      </trkpt>
      <trkpt lat="49.15259" lon="1.73847">
        <ele>87</ele>
        <time>2022-11-23T16:45:41Z</time>
      </trkpt>
      <trkpt lat="49.15307" lon="1.73932">
        <ele>94</ele>
        <time>2022-11-23T16:46:40Z</time>
      </trkpt>
      <trkpt lat="49.15352" lon="1.73975">
        <ele>95</ele>
        <time>2022-11-23T16:47:23Z</time>
      </trkpt>
      <trkpt lat="49.15414" lon="1.74014">
        <ele>96</ele>
        <time>2022-11-23T16:48:16Z</time>
      </trkpt>
      <trkpt lat="49.15454" lon="1.7404">
        <ele>97</ele>
        <time>2022-11-23T16:48:51Z</time>
      </trkpt>
      <trkpt lat="49.15518" lon="1.74056">
        <ele>94.1</ele>
        <time>2022-11-23T16:49:44Z</time>
      </trkpt>
      <trkpt lat="49.15585" lon="1.74071">
        <ele>95.7</ele>
        <time>2022-11-23T16:50:44Z</time>
      </trkpt>
      <trkpt lat="49.15592" lon="1.74087">
        <ele>97</ele>
      </trkpt>
      <trkpt lat="49.15588" lon="1.74099">
        <ele>97.9</ele>
        <time>2022-11-23T16:50:57Z</time>
      </trkpt>
      <trkpt lat="49.15601" lon="1.74134">
        <ele>101.6</ele>
        <time>2022-11-23T16:51:23Z</time>
      </trkpt>
      <trkpt lat="49.15621" lon="1.74164">
        <ele>105.2</ele>
        <time>2022-11-23T16:51:33Z</time>
      </trkpt>
      <trkpt lat="49.15778" lon="1.74403">
        <ele>129</ele>
        <time>2022-11-23T16:54:39Z</time>
      </trkpt>
      <trkpt lat="49.15917" lon="1.74625">
        <ele>135</ele>
        <time>2022-11-23T16:57:20Z</time>
      </trkpt>
      <trkpt lat="49.16063" lon="1.74859">
        <ele>143</ele>
        <time>2022-11-23T17:00:10Z</time>
      </trkpt>
      <trkpt lat="49.16164" lon="1.75021">
        <ele>148</ele>
        <time>2022-11-23T17:02:07Z</time>
      </trkpt>
      <trkpt lat="49.16244" lon="1.74897">
        <ele>152</ele>
        <time>2022-11-23T17:03:38Z</time>
      </trkpt>
      <trkpt lat="49.16268" lon="1.74874">
        <ele>149.3</ele>
      </trkpt>
      <trkpt lat="49.16303" lon="1.74858">
        <ele>151</ele>
        <time>2022-11-23T17:04:29Z</time>
      </trkpt>
      <trkpt lat="49.16326" lon="1.74854">
        <ele>151</ele>
        <time>2022-11-23T17:04:48Z</time>
      </trkpt>
      <trkpt lat="49.16359" lon="1.74853">
        <ele>150</ele>
        <time>2022-11-23T17:05:14Z</time>
      </trkpt>
      <trkpt lat="49.1641" lon="1.74911">
        <ele>150</ele>
        <time>2022-11-23T17:06:05Z</time>
      </trkpt>
      <trkpt lat="49.16436" lon="1.74914">
        <ele>150</ele>
        <time>2022-11-23T17:06:26Z</time>
      </trkpt>
      <trkpt lat="49.16459" lon="1.74886">
        <ele>150</ele>
        <time>2022-11-23T17:06:50Z</time>
      </trkpt>
      <trkpt lat="49.16528" lon="1.74767">
        <ele>145.6</ele>
        <time>2022-11-23T17:08:12Z</time>
      </trkpt>
      <trkpt lat="49.16586" lon="1.74711">
        <ele>145</ele>
        <time>2022-11-23T17:09:09Z</time>
      </trkpt>
      <trkpt lat="49.16607" lon="1.74648">
        <ele>144</ele>
        <time>2022-11-23T17:09:46Z</time>
      </trkpt>
      <trkpt lat="49.16635" lon="1.74594">
        <ele>145</ele>
        <time>2022-11-23T17:10:22Z</time>
      </trkpt>
      <trkpt lat="49.16719" lon="1.744">
        <ele>146</ele>
        <time>2022-11-23T17:12:24Z</time>
      </trkpt>
      <trkpt lat="49.16744" lon="1.74301">
        <ele>145</ele>
        <time>2022-11-23T17:13:19Z</time>
      </trkpt>
      <trkpt lat="49.16756" lon="1.74222">
        <ele>143</ele>
        <time>2022-11-23T17:14:02Z</time>
      </trkpt>
      <trkpt lat="49.16747" lon="1.74218">
        <ele>144.9</ele>
      </trkpt>
      <trkpt lat="49.16749" lon="1.74183">
        <ele>143.6</ele>
        <time>2022-11-23T17:14:13Z</time>
      </trkpt>
      <trkpt lat="49.16752" lon="1.7408">
        <ele>140.5</ele>
        <time>2022-11-23T17:15:43Z</time>
      </trkpt>
      <trkpt lat="49.16758" lon="1.74032">
        <ele>142.7</ele>
      </trkpt>
      <trkpt lat="49.16752" lon="1.73979">
        <ele>143.2</ele>
      </trkpt>
      <trkpt lat="49.16747" lon="1.73945">
        <ele>142.7</ele>
      </trkpt>
      <trkpt lat="49.16717" lon="1.73829">
        <ele>145.6</ele>
        <time>2022-11-23T17:17:13Z</time>
      </trkpt>
      <trkpt lat="49.16735" lon="1.73769">
        <ele>151.4</ele>
      </trkpt>
      <trkpt lat="49.16741" lon="1.73715">
        <ele>154.4</ele>
      </trkpt>
      <trkpt lat="49.16762" lon="1.73684">
        <ele>156.4</ele>
      </trkpt>
      <trkpt lat="49.16836" lon="1.73631">
        <ele>160</ele>
        <time>2022-11-23T17:19:20Z</time>
      </trkpt>
      <trkpt lat="49.16876" lon="1.73596">
        <ele>158</ele>
        <time>2022-11-23T17:19:57Z</time>
      </trkpt>
      <trkpt lat="49.16915" lon="1.73542">
        <ele>156</ele>
        <time>2022-11-23T17:20:39Z</time>
      </trkpt>
      <trkpt lat="49.16934" lon="1.73525">
        <ele>154</ele>
        <time>2022-11-23T17:20:57Z</time>
      </trkpt>
      <trkpt lat="49.16956" lon="1.73523">
        <ele>153</ele>
        <time>2022-11-23T17:21:14Z</time>
      </trkpt>
      <trkpt lat="49.1697" lon="1.73549">
        <ele>152.9</ele>
        <time>2022-11-23T17:21:33Z</time>
      </trkpt>
      <trkpt lat="49.17026" lon="1.73609">
        <ele>151</ele>
        <time>2022-11-23T17:22:30Z</time>
      </trkpt>
      <trkpt lat="49.17219" lon="1.73812">
        <ele>151</ele>
        <time>2022-11-23T17:25:37Z</time>
      </trkpt>
      <trkpt lat="49.17555" lon="1.74088">
        <ele>152</ele>
        <time>2022-11-23T17:30:43Z</time>
      </trkpt>
      <trkpt lat="49.17645" lon="1.74105">
        <ele>150</ele>
        <time>2022-11-23T17:31:55Z</time>
      </trkpt>
      <trkpt lat="49.17914" lon="1.7422">
        <ele>140</ele>
        <time>2022-11-23T17:35:39Z</time>
      </trkpt>
      <trkpt lat="49.1797" lon="1.74266">
        <ele>139</ele>
        <time>2022-11-23T17:36:30Z</time>
      </trkpt>
      <trkpt lat="49.17988" lon="1.74279">
        <ele>138.5</ele>
      </trkpt>
      <trkpt lat="49.18006" lon="1.74277">
        <ele>139.2</ele>
        <time>2022-11-23T17:37:08Z</time>
      </trkpt>
      <trkpt lat="49.18308" lon="1.7479">
        <ele>140.1</ele>
      </trkpt>
      <trkpt lat="49.18534" lon="1.74631">
        <ele>139</ele>
        <time>2022-11-23T17:46:29Z</time>
      </trkpt>
      <trkpt lat="49.19033" lon="1.74278">
        <ele>143</ele>
        <time>2022-11-23T17:53:49Z</time>
      </trkpt>
      <trkpt lat="49.19062" lon="1.74318">
        <ele>143</ele>
        <time>2022-11-23T17:54:20Z</time>
      </trkpt>
      <trkpt lat="49.19088" lon="1.74363">
        <ele>142</ele>
        <time>2022-11-23T17:54:52Z</time>
      </trkpt>
      <trkpt lat="49.19113" lon="1.74423">
        <ele>141</ele>
        <time>2022-11-23T17:55:29Z</time>
      </trkpt>
      <trkpt lat="49.19151" lon="1.74491">
        <ele>139</ele>
        <time>2022-11-23T17:56:16Z</time>
      </trkpt>
      <trkpt lat="49.19264" lon="1.74637">
        <ele>135</ele>
        <time>2022-11-23T17:58:14Z</time>
      </trkpt>
      <trkpt lat="49.19441" lon="1.74866">
        <ele>127</ele>
        <time>2022-11-23T18:01:20Z</time>
      </trkpt>
      <trkpt lat="49.19686" lon="1.75105">
        <ele>111</ele>
        <time>2022-11-23T18:05:12Z</time>
      </trkpt>
      <trkpt lat="49.19834" lon="1.75116">
        <ele>103</ele>
        <time>2022-11-23T18:07:11Z</time>
      </trkpt>
      <trkpt lat="49.19849" lon="1.75123">
        <ele>102</ele>
        <time>2022-11-23T18:07:23Z</time>
      </trkpt>
      <trkpt lat="49.19865" lon="1.75137">
        <ele>101</ele>
        <time>2022-11-23T18:07:38Z</time>
      </trkpt>
      <trkpt lat="49.19922" lon="1.7522">
        <ele>96</ele>
        <time>2022-11-23T18:08:41Z</time>
      </trkpt>
      <trkpt lat="49.20006" lon="1.75343">
        <ele>89</ele>
        <time>2022-11-23T18:10:14Z</time>
      </trkpt>
      <trkpt lat="49.20096" lon="1.75476">
        <ele>85</ele>
        <time>2022-11-23T18:11:54Z</time>
      </trkpt>
      <trkpt lat="49.20111" lon="1.75503">
        <ele>85</ele>
        <time>2022-11-23T18:12:13Z</time>
      </trkpt>
      <trkpt lat="49.2021" lon="1.75563">
        <ele>82</ele>
        <time>2022-11-23T18:13:38Z</time>
      </trkpt>
      <trkpt lat="49.20218" lon="1.75603">
        <ele>82</ele>
        <time>2022-11-23T18:14:00Z</time>
      </trkpt>
      <trkpt lat="49.202" lon="1.76011">
        <ele>88</ele>
        <time>2022-11-23T18:17:34Z</time>
      </trkpt>
      <trkpt lat="49.20191" lon="1.76017">
        <ele>89</ele>
        <time>2022-11-23T18:17:42Z</time>
      </trkpt>
      <trkpt lat="49.20172" lon="1.76002">
        <ele>89</ele>
        <time>2022-11-23T18:17:59Z</time>
      </trkpt>
      <trkpt lat="49.20138" lon="1.75981">
        <ele>90</ele>
        <time>2022-11-23T18:18:28Z</time>
      </trkpt>
      <trkpt lat="49.20115" lon="1.75979">
        <ele>92</ele>
        <time>2022-11-23T18:18:47Z</time>
      </trkpt>
      <trkpt lat="49.20076" lon="1.76111">
        <ele>101</ele>
        <time>2022-11-23T18:20:03Z</time>
      </trkpt>
      <trkpt lat="49.20078" lon="1.76164">
        <ele>102</ele>
        <time>2022-11-23T18:20:30Z</time>
      </trkpt>
      <trkpt lat="49.20116" lon="1.76238">
        <ele>106</ele>
        <time>2022-11-23T18:21:20Z</time>
      </trkpt>
      <trkpt lat="49.20145" lon="1.76282">
        <ele>109</ele>
        <time>2022-11-23T18:21:52Z</time>
      </trkpt>
      <trkpt lat="49.20196" lon="1.76337">
        <ele>114</ele>
        <time>2022-11-23T18:22:42Z</time>
      </trkpt>
      <trkpt lat="49.20256" lon="1.76393">
        <ele>119</ele>
        <time>2022-11-23T18:23:39Z</time>
      </trkpt>
      <trkpt lat="49.20292" lon="1.76433">
        <ele>122</ele>
        <time>2022-11-23T18:24:14Z</time>
      </trkpt>
      <trkpt lat="49.20319" lon="1.76449">
        <ele>122</ele>
        <time>2022-11-23T18:24:37Z</time>
      </trkpt>
      <trkpt lat="49.20355" lon="1.7647">
        <ele>123</ele>
        <time>2022-11-23T18:25:08Z</time>
      </trkpt>
      <trkpt lat="49.2057" lon="1.76643">
        <ele>123</ele>
        <time>2022-11-23T18:28:23Z</time>
      </trkpt>
      <trkpt lat="49.20603" lon="1.76643">
        <ele>123</ele>
        <time>2022-11-23T18:28:49Z</time>
      </trkpt>
      <trkpt lat="49.20622" lon="1.76651">
        <ele>123</ele>
        <time>2022-11-23T18:29:05Z</time>
      </trkpt>
      <trkpt lat="49.20647" lon="1.7667">
        <ele>125</ele>
        <time>2022-11-23T18:29:27Z</time>
      </trkpt>
      <trkpt lat="49.20713" lon="1.76718">
        <ele>125</ele>
        <time>2022-11-23T18:30:26Z</time>
      </trkpt>
      <trkpt lat="49.20731" lon="1.76789">
        <ele>127</ele>
        <time>2022-11-23T18:31:06Z</time>
      </trkpt>
      <trkpt lat="49.20768" lon="1.76917">
        <ele>132</ele>
        <time>2022-11-23T18:32:19Z</time>
      </trkpt>
      <trkpt lat="49.20781" lon="1.76982">
        <ele>130.4</ele>
        <time>2022-11-23T18:32:54Z</time>
      </trkpt>
      <trkpt lat="49.20835" lon="1.77068">
        <ele>135</ele>
        <time>2022-11-23T18:33:58Z</time>
      </trkpt>
      <trkpt lat="49.20848" lon="1.77075">
        <ele>135</ele>
        <time>2022-11-23T18:34:09Z</time>
      </trkpt>
      <trkpt lat="49.20878" lon="1.77128">
        <ele>135</ele>
        <time>2022-11-23T18:34:46Z</time>
      </trkpt>
      <trkpt lat="49.20855" lon="1.77142">
        <ele>134.1</ele>
        <time>2022-11-23T18:35:11Z</time>
      </trkpt>
      <trkpt lat="49.21095" lon="1.77737">
        <ele>148</ele>
        <time>2022-11-23T18:41:16Z</time>
      </trkpt>
      <trkpt lat="49.21132" lon="1.7787">
        <ele>153</ele>
        <time>2022-11-23T18:42:32Z</time>
      </trkpt>
      <trkpt lat="49.21158" lon="1.77992">
        <ele>158</ele>
        <time>2022-11-23T18:43:39Z</time>
      </trkpt>
      <trkpt lat="49.21153" lon="1.78046">
        <ele>161</ele>
        <time>2022-11-23T18:44:08Z</time>
      </trkpt>
      <trkpt lat="49.21127" lon="1.78153">
        <ele>164</ele>
        <time>2022-11-23T18:45:07Z</time>
      </trkpt>
      <trkpt lat="49.21134" lon="1.78188">
        <ele>166</ele>
        <time>2022-11-23T18:45:26Z</time>
      </trkpt>
      <trkpt lat="49.21154" lon="1.78203">
        <ele>168</ele>
        <time>2022-11-23T18:45:44Z</time>
      </trkpt>
      <trkpt lat="49.21263" lon="1.78152">
        <ele>177</ele>
        <time>2022-11-23T18:47:16Z</time>
      </trkpt>
      <trkpt lat="49.21353" lon="1.78133">
        <ele>181</ele>
        <time>2022-11-23T18:48:28Z</time>
      </trkpt>
      <trkpt lat="49.21366" lon="1.78157">
        <ele>183</ele>
        <time>2022-11-23T18:48:45Z</time>
      </trkpt>
      <trkpt lat="49.21369" lon="1.78174">
        <ele>185.5</ele>
        <time>2022-11-23T18:49:01Z</time>
      </trkpt>
      <trkpt lat="49.21393" lon="1.78079">
        <ele>181</ele>
      </trkpt>
      <trkpt lat="49.2144" lon="1.77892">
        <ele>176.6</ele>
      </trkpt>
      <trkpt lat="49.21536" lon="1.77666">
        <ele>179.8</ele>
      </trkpt>
      <trkpt lat="49.21641" lon="1.77446">
        <ele>178.2</ele>
      </trkpt>
      <trkpt lat="49.21672" lon="1.77443">
        <ele>179.1</ele>
      </trkpt>
      <trkpt lat="49.21656" lon="1.77607">
        <ele>188</ele>
      </trkpt>
      <trkpt lat="49.2165" lon="1.77729">
        <ele>193.1</ele>
      </trkpt>
      <trkpt lat="49.21618" lon="1.77861">
        <ele>193.5</ele>
      </trkpt>
      <trkpt lat="49.21567" lon="1.78001">
        <ele>193.3</ele>
      </trkpt>
      <trkpt lat="49.21521" lon="1.78132">
        <ele>195.8</ele>
      </trkpt>
      <trkpt lat="49.21512" lon="1.78169">
        <ele>196.9</ele>
        <time>2022-11-23T18:49:38Z</time>
      </trkpt>
      <trkpt lat="49.21516" lon="1.7818">
        <ele>198.2</ele>
      </trkpt>
      <trkpt lat="49.2148" lon="1.78252">
        <ele>198.9</ele>
      </trkpt>
      <trkpt lat="49.21421" lon="1.7841">
        <ele>199.3</ele>
        <time>2022-11-23T18:50:00Z</time>
      </trkpt>
      <trkpt lat="49.21455" lon="1.78407">
        <ele>202.1</ele>
      </trkpt>
      <trkpt lat="49.21456" lon="1.78454">
        <ele>201.4</ele>
      </trkpt>
      <trkpt lat="49.21418" lon="1.78463">
        <ele>199.1</ele>
        <time>2022-11-23T18:50:38Z</time>
      </trkpt>
      <trkpt lat="49.21403" lon="1.7844">
        <ele>198</ele>
        <time>2022-11-23T18:51:27Z</time>
      </trkpt>
      <trkpt lat="49.21375" lon="1.78461">
        <ele>195.5</ele>
      </trkpt>
      <trkpt lat="49.21336" lon="1.78476">
        <ele>192</ele>
        <time>2022-11-23T18:52:22Z</time>
      </trkpt>
      <trkpt lat="49.21251" lon="1.78512">
        <ele>182.6</ele>
        <time>2022-11-23T18:53:44Z</time>
      </trkpt>
      <trkpt lat="49.21107" lon="1.78523">
        <ele>167.7</ele>
        <time>2022-11-23T18:55:30Z</time>
      </trkpt>
      <trkpt lat="49.21097" lon="1.78577">
        <ele>164.7</ele>
      </trkpt>
      <trkpt lat="49.21087" lon="1.78619">
        <ele>162.3</ele>
      </trkpt>
      <trkpt lat="49.21076" lon="1.78643">
        <ele>161.3</ele>
        <time>2022-11-23T18:56:29Z</time>
      </trkpt>
      <trkpt lat="49.21055" lon="1.78668">
        <ele>160</ele>
        <time>2022-11-23T18:56:58Z</time>
      </trkpt>
      <trkpt lat="49.21009" lon="1.78717">
        <ele>155</ele>
        <time>2022-11-23T18:57:43Z</time>
      </trkpt>
      <trkpt lat="49.20906" lon="1.78799">
        <ele>148.6</ele>
        <time>2022-11-23T18:59:16Z</time>
      </trkpt>
      <trkpt lat="49.20867" lon="1.78818">
        <ele>143</ele>
        <time>2022-11-23T18:59:49Z</time>
      </trkpt>
      <trkpt lat="49.20813" lon="1.7885">
        <ele>140.4</ele>
      </trkpt>
      <trkpt lat="49.20765" lon="1.78869">
        <ele>138.6</ele>
        <time>2022-11-23T19:01:14Z</time>
      </trkpt>
      <trkpt lat="49.20676" lon="1.789">
        <ele>136.3</ele>
        <time>2022-11-23T19:02:41Z</time>
      </trkpt>
      <trkpt lat="49.20648" lon="1.78921">
        <ele>134.4</ele>
      </trkpt>
      <trkpt lat="49.20596" lon="1.78997">
        <ele>131.5</ele>
      </trkpt>
      <trkpt lat="49.20543" lon="1.7908">
        <ele>128</ele>
        <time>2022-11-23T19:04:51Z</time>
      </trkpt>
      <trkpt lat="49.20469" lon="1.79204">
        <ele>125</ele>
        <time>2022-11-23T19:06:19Z</time>
      </trkpt>
      <trkpt lat="49.20372" lon="1.79392">
        <ele>118</ele>
        <time>2022-11-23T19:08:24Z</time>
      </trkpt>
      <trkpt lat="49.20324" lon="1.79496">
        <ele>115</ele>
        <time>2022-11-23T19:09:31Z</time>
      </trkpt>
      <trkpt lat="49.20242" lon="1.7959">
        <ele>109.9</ele>
        <time>2022-11-23T19:10:56Z</time>
      </trkpt>
      <trkpt lat="49.20236" lon="1.79627">
        <ele>108.2</ele>
      </trkpt>
      <trkpt lat="49.20238" lon="1.79638">
        <ele>109</ele>
        <time>2022-11-23T19:11:19Z</time>
      </trkpt>
      <trkpt lat="49.20245" lon="1.79706">
        <ele>111</ele>
        <time>2022-11-23T19:11:55Z</time>
      </trkpt>
      <trkpt lat="49.20137" lon="1.79723">
        <ele>111.2</ele>
        <time>2022-11-23T19:13:28Z</time>
      </trkpt>
      <trkpt lat="49.20114" lon="1.79717">
        <ele>112.8</ele>
      </trkpt>
      <trkpt lat="49.20027" lon="1.79672">
        <ele>116</ele>
        <time>2022-11-23T19:14:53Z</time>
      </trkpt>
      <trkpt lat="49.19975" lon="1.79681">
        <ele>116</ele>
        <time>2022-11-23T19:15:35Z</time>
      </trkpt>
      <trkpt lat="49.19868" lon="1.79749">
        <ele>119</ele>
        <time>2022-11-23T19:17:08Z</time>
      </trkpt>
      <trkpt lat="49.19775" lon="1.79768">
        <ele>120</ele>
        <time>2022-11-23T19:18:23Z</time>
      </trkpt>
      <trkpt lat="49.19684" lon="1.79826">
        <ele>123</ele>
        <time>2022-11-23T19:19:42Z</time>
      </trkpt>
      <trkpt lat="49.1967" lon="1.79839">
        <ele>123</ele>
        <time>2022-11-23T19:19:55Z</time>
      </trkpt>
      <trkpt lat="49.19657" lon="1.79861">
        <ele>124</ele>
        <time>2022-11-23T19:20:10Z</time>
      </trkpt>
      <trkpt lat="49.19641" lon="1.79893">
        <ele>125</ele>
        <time>2022-11-23T19:20:31Z</time>
      </trkpt>
      <trkpt lat="49.19627" lon="1.799">
        <ele>125</ele>
        <time>2022-11-23T19:20:43Z</time>
      </trkpt>
      <trkpt lat="49.19619" lon="1.79922">
        <ele>125</ele>
        <time>2022-11-23T19:20:56Z</time>
      </trkpt>
      <trkpt lat="49.19561" lon="1.80004">
        <ele>126</ele>
        <time>2022-11-23T19:22:00Z</time>
      </trkpt>
      <trkpt lat="49.19601" lon="1.80111">
        <ele>127.6</ele>
        <time>2022-11-23T19:22:39Z</time>
      </trkpt>
      <trkpt lat="49.19744" lon="1.80283">
        <ele>134</ele>
        <time>2022-11-23T19:23:29Z</time>
      </trkpt>
      <trkpt lat="49.1978" lon="1.80446">
        <ele>136.1</ele>
        <time>2022-11-23T19:25:39Z</time>
      </trkpt>
      <trkpt lat="49.19759" lon="1.80562">
        <ele>141.8</ele>
        <time>2022-11-23T19:27:51Z</time>
      </trkpt>
      <trkpt lat="49.19783" lon="1.80787">
        <ele>144.7</ele>
        <time>2022-11-23T19:29:48Z</time>
      </trkpt>
      <trkpt lat="49.19799" lon="1.80991">
        <ele>149.2</ele>
        <time>2022-11-23T19:30:16Z</time>
      </trkpt>
      <trkpt lat="49.19716" lon="1.81429">
        <ele>170.1</ele>
        <time>2022-11-23T19:31:14Z</time>
      </trkpt>
      <trkpt lat="49.19724" lon="1.81446">
        <ele>171.4</ele>
      </trkpt>
      <trkpt lat="49.19761" lon="1.81446">
        <ele>174.2</ele>
        <time>2022-11-23T19:32:39Z</time>
      </trkpt>
      <trkpt lat="49.19718" lon="1.81523">
        <ele>183.2</ele>
      </trkpt>
      <trkpt lat="49.19633" lon="1.81618">
        <ele>197.4</ele>
      </trkpt>
      <trkpt lat="49.19604" lon="1.81698">
        <ele>200.3</ele>
      </trkpt>
      <trkpt lat="49.19567" lon="1.81968">
        <ele>204.5</ele>
      </trkpt>
      <trkpt lat="49.19523" lon="1.82314">
        <ele>207.9</ele>
        <time>2022-11-23T19:33:18Z</time>
      </trkpt>
      <trkpt lat="49.19507" lon="1.82352">
        <ele>208.2</ele>
      </trkpt>
      <trkpt lat="49.19491" lon="1.82595">
        <ele>209</ele>
      </trkpt>
      <trkpt lat="49.19401" lon="1.82994">
        <ele>204.3</ele>
      </trkpt>
      <trkpt lat="49.194" lon="1.83048">
        <ele>204</ele>
      </trkpt>
      <trkpt lat="49.19351" lon="1.83271">
        <ele>204.5</ele>
      </trkpt>
      <trkpt lat="49.19173" lon="1.83455">
        <ele>198.1</ele>
      </trkpt>
      <trkpt lat="49.19081" lon="1.83433">
        <ele>186.8</ele>
      </trkpt>
      <trkpt lat="49.18928" lon="1.83371">
        <ele>167.4</ele>
      </trkpt>
      <trkpt lat="49.18892" lon="1.8335">
        <ele>162.4</ele>
      </trkpt>
      <trkpt lat="49.18744" lon="1.83175">
        <ele>142.1</ele>
      </trkpt>
      <trkpt lat="49.18724" lon="1.83228">
        <ele>144.4</ele>
      </trkpt>
      <trkpt lat="49.18673" lon="1.83191">
        <ele>136.8</ele>
      </trkpt>
      <trkpt lat="49.18614" lon="1.83188">
        <ele>131.4</ele>
      </trkpt>
      <trkpt lat="49.18619" lon="1.83036">
        <ele>131.1</ele>
      </trkpt>
      <trkpt lat="49.18616" lon="1.8304">
        <ele>131.1</ele>
      </trkpt>
      <trkpt lat="49.18458" lon="1.82984">
        <ele>124</ele>
      </trkpt>
      <trkpt lat="49.18269" lon="1.82882">
        <ele>127.3</ele>
      </trkpt>
      <trkpt lat="49.17935" lon="1.82551">
        <ele>135.6</ele>
      </trkpt>
      <trkpt lat="49.17869" lon="1.8234">
        <ele>131.4</ele>
      </trkpt>
      <trkpt lat="49.17695" lon="1.81944">
        <ele>124</ele>
      </trkpt>
      <trkpt lat="49.17625" lon="1.81856">
        <ele>122</ele>
      </trkpt>
      <trkpt lat="49.17558" lon="1.8177">
        <ele>122.3</ele>
      </trkpt>
      <trkpt lat="49.1749" lon="1.81697">
        <ele>123</ele>
        <time>2022-11-23T19:56:28Z</time>
      </trkpt>
      <trkpt lat="49.17291" lon="1.81514">
        <ele>125.5</ele>
        <time>2022-11-23T19:57:16Z</time>
      </trkpt>
      <trkpt lat="49.17045" lon="1.81286">
        <ele>128</ele>
      </trkpt>
      <trkpt lat="49.16837" lon="1.81096">
        <ele>124</ele>
      </trkpt>
      <trkpt lat="49.16807" lon="1.80986">
        <ele>122.5</ele>
      </trkpt>
      <trkpt lat="49.16803" lon="1.8092">
        <ele>120.4</ele>
        <time>2022-11-23T20:00:21Z</time>
      </trkpt>
      <trkpt lat="49.16846" lon="1.80844">
        <ele>118.2</ele>
      </trkpt>
      <trkpt lat="49.16824" lon="1.80857">
        <ele>116</ele>
        <time>2022-11-23T20:02:51Z</time>
      </trkpt>
      <trkpt lat="49.16806" lon="1.80871">
        <ele>114.1</ele>
      </trkpt>
      <trkpt lat="49.16711" lon="1.8084">
        <ele>109</ele>
        <time>2022-11-23T20:04:23Z</time>
      </trkpt>
      <trkpt lat="49.16596" lon="1.80827">
        <ele>99</ele>
        <time>2022-11-23T20:05:55Z</time>
      </trkpt>
      <trkpt lat="49.16503" lon="1.80726">
        <ele>94.9</ele>
        <time>2022-11-23T20:07:28Z</time>
      </trkpt>
      <trkpt lat="49.16389" lon="1.80557">
        <ele>103</ele>
        <time>2022-11-23T20:09:34Z</time>
      </trkpt>
      <trkpt lat="49.1634" lon="1.80509">
        <ele>103.4</ele>
        <time>2022-11-23T20:10:21Z</time>
      </trkpt>
      <trkpt lat="49.16291" lon="1.80474">
        <ele>103</ele>
        <time>2022-11-23T20:11:04Z</time>
      </trkpt>
      <trkpt lat="49.1624" lon="1.80454">
        <ele>102.4</ele>
        <time>2022-11-23T20:11:46Z</time>
      </trkpt>
      <trkpt lat="49.16215" lon="1.80428">
        <ele>103.5</ele>
        <time>2022-11-23T20:12:10Z</time>
      </trkpt>
      <trkpt lat="49.16201" lon="1.80404">
        <ele>104.3</ele>
      </trkpt>
      <trkpt lat="49.16188" lon="1.80376">
        <ele>104</ele>
        <time>2022-11-23T20:12:44Z</time>
      </trkpt>
      <trkpt lat="49.16172" lon="1.80338">
        <ele>104</ele>
        <time>2022-11-23T20:13:08Z</time>
      </trkpt>
      <trkpt lat="49.16162" lon="1.80287">
        <ele>105</ele>
        <time>2022-11-23T20:13:36Z</time>
      </trkpt>
      <trkpt lat="49.16152" lon="1.80241">
        <ele>105</ele>
        <time>2022-11-23T20:14:01Z</time>
      </trkpt>
      <trkpt lat="49.16123" lon="1.80154">
        <ele>103</ele>
        <time>2022-11-23T20:14:52Z</time>
      </trkpt>
      <trkpt lat="49.16112" lon="1.80099">
        <ele>102</ele>
        <time>2022-11-23T20:15:22Z</time>
      </trkpt>
      <trkpt lat="49.16113" lon="1.80029">
        <ele>104</ele>
        <time>2022-11-23T20:15:59Z</time>
      </trkpt>
      <trkpt lat="49.16142" lon="1.7995">
        <ele>109</ele>
        <time>2022-11-23T20:16:46Z</time>
      </trkpt>
      <trkpt lat="49.16165" lon="1.79897">
        <ele>112</ele>
        <time>2022-11-23T20:17:20Z</time>
      </trkpt>
      <trkpt lat="49.16184" lon="1.79858">
        <ele>116</ele>
        <time>2022-11-23T20:17:45Z</time>
      </trkpt>
      <trkpt lat="49.16188" lon="1.79817">
        <ele>117</ele>
        <time>2022-11-23T20:18:07Z</time>
      </trkpt>
      <trkpt lat="49.16185" lon="1.79744">
        <ele>116</ele>
        <time>2022-11-23T20:18:45Z</time>
      </trkpt>
      <trkpt lat="49.16161" lon="1.79608">
        <ele>112</ele>
        <time>2022-11-23T20:19:59Z</time>
      </trkpt>
      <trkpt lat="49.16161" lon="1.79563">
        <ele>106.7</ele>
      </trkpt>
      <trkpt lat="49.16152" lon="1.79522">
        <ele>109</ele>
        <time>2022-11-23T20:20:44Z</time>
      </trkpt>
      <trkpt lat="49.16174" lon="1.79289">
        <ele>113</ele>
        <time>2022-11-23T20:22:48Z</time>
      </trkpt>
      <trkpt lat="49.16189" lon="1.79175">
        <ele>108.6</ele>
        <time>2022-11-23T20:23:49Z</time>
      </trkpt>
      <trkpt lat="49.16267" lon="1.79011">
        <ele>111</ele>
        <time>2022-11-23T20:25:36Z</time>
      </trkpt>
      <trkpt lat="49.1628" lon="1.7901">
        <ele>112</ele>
        <time>2022-11-23T20:25:46Z</time>
      </trkpt>
      <trkpt lat="49.16302" lon="1.79002">
        <ele>110.7</ele>
        <time>2022-11-23T20:25:52Z</time>
      </trkpt>
      <trkpt lat="49.16219" lon="1.78957">
        <ele>97.4</ele>
        <time>2022-11-23T20:26:28Z</time>
      </trkpt>
      <trkpt lat="49.1622" lon="1.78886">
        <ele>91.7</ele>
      </trkpt>
      <trkpt lat="49.16202" lon="1.78843">
        <ele>87.5</ele>
      </trkpt>
      <trkpt lat="49.16132" lon="1.78812">
        <ele>81</ele>
        <time>2022-11-23T20:30:52Z</time>
      </trkpt>
      <trkpt lat="49.16134" lon="1.788">
        <ele>80</ele>
        <time>2022-11-23T20:30:58Z</time>
      </trkpt>
      <trkpt lat="49.16106" lon="1.78741">
        <ele>74.1</ele>
        <time>2022-11-23T20:31:36Z</time>
      </trkpt>
      <trkpt lat="49.16053" lon="1.78692">
        <ele>72</ele>
        <time>2022-11-23T20:32:28Z</time>
      </trkpt>
      <trkpt lat="49.16024" lon="1.78667">
        <ele>71</ele>
        <time>2022-11-23T20:32:55Z</time>
      </trkpt>
      <trkpt lat="49.15895" lon="1.78654">
        <ele>70</ele>
        <time>2022-11-23T20:34:38Z</time>
      </trkpt>
      <trkpt lat="49.1587" lon="1.78664">
        <ele>70</ele>
        <time>2022-11-23T20:34:59Z</time>
      </trkpt>
      <trkpt lat="49.15801" lon="1.78656">
        <ele>71</ele>
        <time>2022-11-23T20:35:54Z</time>
      </trkpt>
      <trkpt lat="49.15786" lon="1.78643">
        <ele>69.9</ele>
        <time>2022-11-23T20:36:09Z</time>
      </trkpt>
      <trkpt lat="49.15769" lon="1.78613">
        <ele>70</ele>
      </trkpt>
      <trkpt lat="49.15763" lon="1.78596">
        <ele>70.3</ele>
        <time>2022-11-23T20:36:37Z</time>
      </trkpt>
      <trkpt lat="49.15757" lon="1.78598">
        <ele>70.1</ele>
        <time>2022-11-23T20:36:43Z</time>
      </trkpt>
      <trkpt lat="49.15734" lon="1.7869">
        <ele>70</ele>
        <time>2022-11-23T20:37:37Z</time>
      </trkpt>
      <trkpt lat="49.15707" lon="1.78803">
        <ele>71</ele>
        <time>2022-11-23T20:38:40Z</time>
      </trkpt>
      <trkpt lat="49.1572" lon="1.78827">
        <ele>70</ele>
        <time>2022-11-23T20:38:56Z</time>
      </trkpt>
      <trkpt lat="49.1573" lon="1.78816">
        <ele>69.5</ele>
        <time>2022-11-23T20:39:06Z</time>
      </trkpt>
      <trkpt lat="49.15741" lon="1.78833">
        <ele>69.3</ele>
      </trkpt>
      <trkpt lat="49.15747" lon="1.78849">
        <ele>69.6</ele>
        <time>2022-11-23T20:39:26Z</time>
      </trkpt>
    </trkseg>
  </trk>
</gpx>